Time;durP1;ratioP1;P1;durP2;ratioP2;P2;SDS_P1;SDS_P2;PMS_P1;PMS_P2;Temp;Humidity;BMP_temperature;BMP_pressure;BME280_temperature;BME280_humidity;BME280_pressure;Samples;Min_cycle;Max_cycle;Signal;HPM_P1;HPM_P2
2022/04/06 00:00:53;;;;;;;12.70;9.80;;;;;;;8.51;58.85;98539.56;5048617;28;20416;-81
2022/04/06 00:03:20;;;;;;;14.07;9.35;;;;;;;8.53;58.47;98536.78;5052371;28;20127;-77
2022/04/06 00:05:49;;;;;;;14.88;9.88;;;;;;;8.56;58.77;98532.06;5052388;28;20412;-82
2022/04/06 00:08:16;;;;;;;15.18;10.18;;;;;;;8.56;58.66;98545.22;5049109;28;20599;-74
2022/04/06 00:10:44;;;;;;;13.85;8.82;;;;;;;8.59;58.69;98541.50;5051334;28;20048;-75
2022/04/06 00:13:11;;;;;;;15.32;9.93;;;;;;;8.61;58.61;98534.28;5046525;28;20128;-74
2022/04/06 00:15:38;;;;;;;15.43;9.93;;;;;;;8.63;58.53;98528.91;5050425;28;20047;-74
2022/04/06 00:18:05;;;;;;;14.05;9.77;;;;;;;8.64;58.74;98523.47;5050858;28;20083;-84
2022/04/06 00:20:32;;;;;;;15.15;8.98;;;;;;;8.66;58.93;98525.97;5048701;28;20716;-73
2022/04/06 00:23:00;;;;;;;15.23;8.88;;;;;;;8.68;59.04;98529.28;5051931;28;20049;-81
2022/04/06 00:25:28;;;;;;;21.35;12.88;;;;;;;8.72;59.10;98522.78;5051172;28;20128;-74
2022/04/06 00:27:55;;;;;;;15.52;10.50;;;;;;;8.73;59.23;98521.78;5052873;28;20044;-74
2022/04/06 00:30:22;;;;;;;17.77;11.88;;;;;;;8.73;59.34;98522.63;5048852;28;20128;-74
2022/04/06 00:32:49;;;;;;;18.95;11.82;;;;;;;8.73;59.15;98519.16;5049570;28;20122;-74
2022/04/06 00:35:32;;;;;;;15.00;9.70;;;;;;;8.79;59.40;98521.25;5050748;28;20055;-81
2022/04/06 00:38:02;;;;;;;14.10;9.00;;;;;;;8.84;59.30;98519.00;5046798;28;20053;-84
2022/04/06 00:40:30;;;;;;;16.48;9.68;;;;;;;8.87;59.18;98518.72;5051030;28;20473;-74
2022/04/06 00:42:57;;;;;;;14.40;9.13;;;;;;;8.87;59.16;98513.44;5050894;28;20115;-77
2022/04/06 00:45:25;;;;;;;12.18;7.85;;;;;;;8.90;59.02;98509.72;5049181;28;20075;-74
2022/04/06 00:47:54;;;;;;;15.15;9.05;;;;;;;8.92;59.06;98507.75;5046165;28;20045;-79
2022/04/06 00:50:23;;;;;;;15.98;10.23;;;;;;;8.95;59.08;98513.56;5049861;28;20049;-83
2022/04/06 00:52:55;;;;;;;12.95;8.10;;;;;;;8.96;59.28;98511.75;5050669;28;20053;-81
2022/04/06 00:55:26;;;;;;;13.60;9.32;;;;;;;8.95;59.16;98510.94;5050197;28;20045;-74
2022/04/06 00:57:54;;;;;;;13.60;9.00;;;;;;;8.95;59.34;98505.66;5050465;28;20518;-75
2022/04/06 01:00:21;;;;;;;14.27;9.43;;;;;;;8.98;59.57;98507.16;5051039;28;20041;-75
2022/04/06 01:02:49;;;;;;;16.17;10.48;;;;;;;9.03;59.59;98518.09;5051457;28;20129;-83
2022/04/06 01:05:16;;;;;;;17.85;10.30;;;;;;;9.04;59.60;98511.03;5049805;28;20059;-82
2022/04/06 01:07:48;;;;;;;13.15;8.52;;;;;;;9.05;59.52;98510.06;5050994;28;20165;-75
2022/04/06 01:10:15;;;;;;;16.38;9.63;;;;;;;9.06;59.42;98503.84;5050866;28;20055;-79
2022/04/06 01:12:46;;;;;;;14.27;8.52;;;;;;;9.08;59.67;98499.25;5050690;28;20136;-79
2022/04/06 01:15:14;;;;;;;15.35;11.20;;;;;;;9.12;59.66;98496.16;5053461;28;20048;-79
2022/04/06 01:17:41;;;;;;;13.73;9.15;;;;;;;9.13;59.63;98495.19;5049028;28;20044;-75
2022/04/06 01:20:10;;;;;;;16.60;11.05;;;;;;;9.15;59.71;98500.31;5054821;28;20239;-76
2022/04/06 01:22:39;;;;;;;17.05;10.13;;;;;;;9.16;59.58;98496.69;5051208;28;20131;-75
2022/04/06 01:25:07;;;;;;;15.10;10.13;;;;;;;9.14;59.94;98498.66;5051177;28;20049;-76
2022/04/06 01:27:35;;;;;;;17.17;11.23;;;;;;;9.16;59.67;98491.44;5050905;28;20049;-75
2022/04/06 01:30:02;;;;;;;15.07;9.90;;;;;;;9.20;59.69;98498.09;5049572;28;20045;-77
2022/04/06 01:32:32;;;;;;;20.55;12.68;;;;;;;9.20;59.57;98495.47;5049162;28;20049;-81
2022/04/06 01:35:00;;;;;;;25.80;13.90;;;;;;;9.21;59.57;98488.38;5051561;28;20459;-75
2022/04/06 01:37:28;;;;;;;28.70;16.02;;;;;;;9.23;59.76;98489.06;5033670;28;20074;-75
2022/04/06 01:39:57;;;;;;;24.55;12.25;;;;;;;9.21;59.84;98483.94;5054759;28;20055;-74
2022/04/06 01:42:24;;;;;;;20.63;12.93;;;;;;;9.25;59.79;98493.19;5052148;28;20080;-78
2022/04/06 01:44:52;;;;;;;19.23;12.50;;;;;;;9.26;59.53;98488.78;5051485;28;20047;-76
2022/04/06 01:47:21;;;;;;;22.52;13.57;;;;;;;9.27;59.76;98487.78;5051401;28;20061;-79
2022/04/06 01:52:34;;;;;;;23.92;14.05;;;;;;;9.27;59.89;98483.34;5045498;28;20098;-78
2022/04/06 01:55:05;;;;;;;21.13;12.18;;;;;;;9.25;59.91;98480.03;5051779;28;20045;-75
2022/04/06 01:57:33;;;;;;;19.30;12.23;;;;;;;9.25;60.09;98471.28;5051138;28;20113;-76
2022/04/06 02:00:01;;;;;;;20.50;12.57;;;;;;;9.25;60.41;98477.38;5050951;28;20127;-88
2022/04/06 02:02:32;;;;;;;20.60;13.02;;;;;;;9.29;60.15;98470.03;5049934;28;20041;-80
2022/04/06 02:05:00;;;;;;;22.85;14.02;;;;;;;9.29;60.08;98477.91;5049649;28;20111;-82
2022/04/06 02:07:27;;;;;;;23.70;15.10;;;;;;;9.29;60.25;98472.66;5049332;28;20076;-84
2022/04/06 02:09:58;;;;;;;23.02;15.10;;;;;;;9.30;60.40;98472.50;5049309;28;20051;-74
2022/04/06 02:12:28;;;;;;;26.92;16.48;;;;;;;9.32;60.56;98486.38;5047906;28;20053;-74
2022/04/06 02:14:59;;;;;;;26.80;17.70;;;;;;;9.31;60.55;98492.63;5048774;28;20276;-81
2022/04/06 02:17:28;;;;;;;29.10;19.08;;;;;;;9.32;60.67;98501.34;5048391;28;20292;-80
2022/04/06 02:19:56;;;;;;;25.67;15.68;;;;;;;9.28;60.81;98498.19;5047810;28;20049;-79
2022/04/06 02:22:23;;;;;;;36.33;17.98;;;;;;;9.29;61.25;98510.38;5047550;28;20525;-80
2022/04/06 02:24:50;;;;;;;51.30;29.10;;;;;;;9.25;61.90;98505.53;5048118;28;20055;-76
2022/04/06 02:27:17;;;;;;;43.78;31.30;;;;;;;9.02;64.33;98505.06;5051633;28;20045;-82
2022/04/06 02:29:45;;;;;;;41.83;28.70;;;;;;;8.84;65.74;98513.75;5052700;28;20049;-76
2022/04/06 02:32:14;;;;;;;33.53;20.08;;;;;;;8.78;65.78;98501.97;5039159;28;20128;-77
2022/04/06 02:34:41;;;;;;;32.67;20.50;;;;;;;8.83;65.59;98505.97;5061487;28;20097;-77
2022/04/06 02:37:10;;;;;;;32.00;18.38;;;;;;;8.82;65.64;98502.50;5062329;28;20088;-78
2022/04/06 02:39:37;;;;;;;28.40;16.00;;;;;;;8.84;65.33;98500.59;5056197;28;20168;-87
2022/04/06 02:42:06;;;;;;;32.40;20.50;;;;;;;8.79;65.68;98505.44;5058090;28;20060;-78
2022/04/06 02:44:33;;;;;;;35.45;21.50;;;;;;;8.72;66.03;98505.19;5057737;28;20083;-78
2022/04/06 02:47:02;;;;;;;29.67;17.08;;;;;;;8.70;66.17;98516.84;5037617;28;20505;-77
2022/04/06 02:49:29;;;;;;;30.00;19.48;;;;;;;8.71;66.33;98515.84;5055458;28;20088;-77
2022/04/06 02:51:56;;;;;;;28.85;16.92;;;;;;;8.68;66.33;98524.88;5034560;28;20507;-81
2022/04/06 02:54:23;;;;;;;31.15;21.90;;;;;;;8.65;66.42;98513.78;5047508;28;20123;-79
2022/04/06 02:56:50;;;;;;;26.67;17.70;;;;;;;8.52;67.10;98527.25;5048202;28;20075;-76
2022/04/06 02:59:18;;;;;;;22.67;15.10;;;;;;;8.40;67.42;98531.78;5048841;28;20679;-76
2022/04/06 03:01:46;;;;;;;23.80;14.70;;;;;;;8.37;67.40;98532.06;5050856;28;20080;-83
2022/04/06 03:04:24;;;;;;;20.30;12.63;;;;;;;8.32;67.49;98540.38;5053616;28;20097;-83
2022/04/06 03:06:51;;;;;;;19.70;13.15;;;;;;;8.31;67.18;98538.72;5055474;28;20049;-82
2022/04/06 03:09:18;;;;;;;16.70;11.60;;;;;;;8.24;67.47;98535.78;5050128;28;20128;-82
2022/04/06 03:11:45;;;;;;;18.45;12.73;;;;;;;8.19;67.67;98543.28;5052170;28;20055;-78
2022/04/06 03:14:12;;;;;;;17.40;12.40;;;;;;;8.12;68.09;98547.44;5056592;28;20045;-79
2022/04/06 03:16:39;;;;;;;16.17;12.30;;;;;;;8.08;67.98;98537.31;5052627;28;20108;-81
2022/04/06 03:19:06;;;;;;;16.92;10.23;;;;;;;8.01;68.13;98539.66;5059152;28;20110;-81
2022/04/06 03:21:35;;;;;;;16.83;10.43;;;;;;;8.01;68.40;98552.81;5062437;28;20051;-78
2022/04/06 03:24:03;;;;;;;12.60;8.93;;;;;;;8.04;68.09;98542.03;5056655;28;20128;-79
2022/04/06 03:26:30;;;;;;;15.68;10.73;;;;;;;8.02;68.23;98546.59;5052695;28;20139;-79
2022/04/06 03:28:57;;;;;;;16.63;10.82;;;;;;;8.02;68.31;98549.22;5051802;28;20124;-77
2022/04/06 03:31:26;;;;;;;17.58;11.02;;;;;;;8.03;68.38;98556.97;5049088;28;20605;-77
2022/04/06 03:33:53;;;;;;;15.30;9.50;;;;;;;8.11;68.03;98545.75;5032887;28;20092;-78
2022/04/06 03:36:20;;;;;;;16.80;9.57;;;;;;;8.24;67.47;98546.31;5029443;28;20056;-81
2022/04/06 03:38:49;;;;;;;13.70;8.27;;;;;;;8.27;67.34;98541.78;5029076;28;20107;-78
2022/04/06 03:41:16;;;;;;;14.27;8.57;;;;;;;8.29;66.92;98543.28;5031522;28;20095;-77
2022/04/06 03:43:43;;;;;;;17.50;10.48;;;;;;;8.33;67.09;98549.09;5031020;28;20141;-83
2022/04/06 03:46:10;;;;;;;18.45;12.48;;;;;;;8.34;67.14;98569.19;5033115;28;20143;-82
2022/04/06 03:48:37;;;;;;;16.77;9.85;;;;;;;8.36;67.00;98565.44;5030072;28;20140;-77
2022/04/06 03:51:04;;;;;;;18.25;11.02;;;;;;;8.47;66.67;98561.84;5028019;28;20057;-76
2022/04/06 03:53:31;;;;;;;17.30;9.65;;;;;;;8.55;66.46;98567.28;5026018;28;20144;-78
2022/04/06 03:56:00;;;;;;;17.70;9.98;;;;;;;8.61;66.17;98571.97;5026633;28;20149;-77
2022/04/06 03:58:28;;;;;;;18.25;9.25;;;;;;;8.65;65.98;98574.31;5026883;28;20058;-77
2022/04/06 04:00:56;;;;;;;17.80;11.13;;;;;;;8.64;66.00;98575.28;5031400;28;20548;-74
2022/04/06 04:03:23;;;;;;;18.92;11.77;;;;;;;8.60;66.26;98569.47;5033173;28;20145;-79
2022/04/06 04:05:50;;;;;;;19.70;12.32;;;;;;;8.50;66.68;98574.75;5031546;28;20124;-74
2022/04/06 04:08:17;;;;;;;23.13;14.18;;;;;;;8.51;66.77;98584.28;5030702;28;20041;-77
2022/04/06 04:10:44;;;;;;;24.92;17.33;;;;;;;8.48;66.82;98575.84;5031176;28;20115;-81
2022/04/06 04:13:12;;;;;;;28.80;21.98;;;;;;;8.38;67.17;98584.53;5029668;28;20128;-79
2022/04/06 04:15:39;;;;;;;30.17;22.88;;;;;;;8.20;66.64;98578.31;5032568;28;20041;-77
2022/04/06 04:18:06;;;;;;;32.67;21.02;;;;;;;7.99;66.51;98583.66;5043405;28;20084;-79
2022/04/06 04:20:33;;;;;;;29.30;21.25;;;;;;;7.84;66.35;98597.19;5042021;28;20511;-79
2022/04/06 04:23:00;;;;;;;28.67;18.65;;;;;;;7.69;66.80;98587.19;5048279;28;20412;-81
2022/04/06 04:25:27;;;;;;;27.10;20.17;;;;;;;7.68;66.28;98596.88;5032533;28;20070;-83
2022/04/06 04:27:55;;;;;;;27.45;15.30;;;;;;;7.70;66.23;98599.38;5031445;28;20453;-75
2022/04/06 04:30:23;;;;;;;23.92;18.58;;;;;;;7.54;66.32;98599.88;5030036;28;20081;-77
2022/04/06 04:32:50;;;;;;;26.05;18.98;;;;;;;7.47;66.48;98608.28;5037657;28;20049;-77
2022/04/06 04:35:17;;;;;;;28.20;17.67;;;;;;;7.44;66.59;98608.53;5047975;28;20055;-76
2022/04/06 04:37:45;;;;;;;24.13;18.33;;;;;;;7.38;66.50;98605.59;5047757;28;20124;-78
2022/04/06 04:40:12;;;;;;;29.35;17.73;;;;;;;7.26;66.45;98604.88;5050740;28;20080;-77
2022/04/06 04:42:39;;;;;;;24.23;17.35;;;;;;;7.23;66.78;98618.25;5049171;28;20095;-76
2022/04/06 04:45:08;;;;;;;26.67;16.13;;;;;;;7.27;66.62;98614.41;5049361;28;20139;-74
2022/04/06 04:47:37;;;;;;;29.80;16.02;;;;;;;7.31;66.26;98612.34;5049626;28;20154;-77
2022/04/06 04:50:05;;;;;;;22.65;15.15;;;;;;;7.30;66.29;98615.94;5050083;28;20577;-87
2022/04/06 04:52:32;;;;;;;21.40;14.63;;;;;;;7.39;65.99;98623.03;5049647;28;20107;-78
2022/04/06 04:54:59;;;;;;;19.98;11.80;;;;;;;7.50;65.79;98627.38;5061468;28;20741;-79
2022/04/06 04:57:27;;;;;;;20.85;15.35;;;;;;;7.55;65.65;98633.06;5071101;28;20132;-77
2022/04/06 04:59:54;;;;;;;21.50;14.35;;;;;;;7.51;65.61;98629.03;5053933;28;20055;-78
2022/04/06 05:02:21;;;;;;;24.88;13.82;;;;;;;7.48;65.79;98635.38;5072045;28;20048;-79
2022/04/06 05:04:50;;;;;;;28.10;18.48;;;;;;;7.42;65.78;98635.91;5069500;28;20135;-78
2022/04/06 05:07:17;;;;;;;22.65;15.55;;;;;;;7.36;65.82;98636.44;5070608;28;20099;-75
2022/04/06 05:09:44;;;;;;;23.15;13.52;;;;;;;7.31;65.98;98631.56;5079381;28;20155;-77
2022/04/06 05:12:12;;;;;;;16.73;11.68;;;;;;;7.37;65.75;98636.28;5075248;28;20133;-77
2022/04/06 05:14:39;;;;;;;21.00;12.15;;;;;;;7.49;65.37;98637.06;5073231;28;20044;-75
2022/04/06 05:17:07;;;;;;;22.75;13.55;;;;;;;7.53;65.30;98635.00;5072786;28;20071;-75
2022/04/06 05:19:34;;;;;;;18.25;11.00;;;;;;;7.57;65.16;98633.75;5074739;28;20140;-82
2022/04/06 05:22:04;;;;;;;24.83;12.95;;;;;;;7.70;64.88;98634.34;5076996;28;20212;-80
2022/04/06 05:24:31;;;;;;;22.00;13.02;;;;;;;7.80;64.53;98637.84;5063562;28;20521;-80
2022/04/06 05:27:00;;;;;;;26.52;13.88;;;;;;;7.84;64.46;98639.25;5049534;28;20609;-79
2022/04/06 05:29:26;;;;;;;17.90;11.38;;;;;;;7.92;64.58;98645.63;5048546;28;20049;-80
2022/04/06 05:31:53;;;;;;;21.63;13.68;;;;;;;7.94;64.36;98647.19;5048795;28;20052;-80
2022/04/06 05:34:21;;;;;;;18.40;12.75;;;;;;;7.85;64.41;98648.00;5050679;28;20071;-79
2022/04/06 05:36:48;;;;;;;19.73;11.55;;;;;;;7.83;64.70;98645.50;5049576;28;20063;-78
2022/04/06 05:39:17;;;;;;;17.13;9.77;;;;;;;7.93;64.50;98642.06;5048926;28;20124;-80
2022/04/06 05:41:45;;;;;;;16.98;10.77;;;;;;;8.03;64.08;98646.38;5053357;28;20055;-80
2022/04/06 05:44:12;;;;;;;22.33;11.50;;;;;;;8.12;64.06;98647.38;5040877;28;20071;-81
2022/04/06 05:46:43;;;;;;;20.15;12.52;;;;;;;8.21;63.93;98643.06;5055578;28;20135;-80
2022/04/06 05:49:13;;;;;;;18.05;11.38;;;;;;;8.21;63.71;98648.31;5056400;28;20527;-83
2022/04/06 05:51:41;;;;;;;23.73;13.00;;;;;;;8.19;63.85;98645.88;5040053;28;20044;-81
2022/04/06 05:54:10;;;;;;;19.70;12.82;;;;;;;8.10;63.73;98638.75;5055408;28;20053;-81
2022/04/06 05:56:39;;;;;;;22.10;12.95;;;;;;;8.06;64.30;98650.53;5056668;28;20565;-80
2022/04/06 05:59:06;;;;;;;22.55;13.98;;;;;;;8.09;64.08;98644.19;5057892;28;20101;-78
2022/04/06 06:01:33;;;;;;;24.48;14.82;;;;;;;8.15;63.94;98644.44;5055661;28;20052;-78
2022/04/06 06:04:00;;;;;;;31.00;16.33;;;;;;;8.13;63.95;98656.06;5057331;28;20068;-78
2022/04/06 06:06:28;;;;;;;25.30;14.40;;;;;;;8.03;64.08;98656.03;5049106;28;20056;-81
2022/04/06 06:08:55;;;;;;;26.80;14.77;;;;;;;8.03;64.16;98661.28;5047020;28;20144;-78
2022/04/06 06:11:22;;;;;;;27.90;16.33;;;;;;;8.09;63.92;98655.53;5047790;28;20544;-80
2022/04/06 06:13:50;;;;;;;27.67;15.95;;;;;;;8.22;63.70;98657.91;5049697;28;20496;-80
2022/04/06 06:16:17;;;;;;;24.95;14.75;;;;;;;8.22;63.78;98661.34;5052128;28;20137;-79
2022/04/06 06:18:45;;;;;;;25.05;12.60;;;;;;;8.13;63.93;98659.53;5053551;28;20087;-80
2022/04/06 06:21:13;;;;;;;19.58;11.45;;;;;;;8.08;64.20;98663.53;5058497;28;20092;-80
2022/04/06 06:23:40;;;;;;;17.15;10.60;;;;;;;8.07;64.10;98672.38;5053120;28;20037;-81
2022/04/06 06:26:08;;;;;;;19.77;12.40;;;;;;;8.12;64.11;98659.66;5033227;28;20499;-79
2022/04/06 06:28:35;;;;;;;17.23;11.75;;;;;;;8.19;64.03;98658.16;5048901;28;20052;-79
2022/04/06 06:31:03;;;;;;;20.45;11.48;;;;;;;8.13;64.03;98648.19;5048564;28;20128;-77
2022/04/06 06:33:30;;;;;;;20.63;9.95;;;;;;;8.10;64.19;98653.72;5048300;28;20136;-81
2022/04/06 06:35:58;;;;;;;18.42;10.57;;;;;;;8.07;64.08;98657.44;5049873;28;20140;-79
2022/04/06 06:38:25;;;;;;;19.10;11.77;;;;;;;8.17;64.26;98645.13;5045840;28;20483;-80
2022/04/06 06:40:52;;;;;;;20.85;12.10;;;;;;;8.11;64.09;98645.69;5048097;28;20084;-81
2022/04/06 06:43:19;;;;;;;21.75;11.52;;;;;;;7.96;64.39;98647.88;5049121;28;20624;-79
2022/04/06 06:45:46;;;;;;;20.85;11.43;;;;;;;7.83;64.67;98642.84;5053486;28;20057;-80
2022/04/06 06:48:15;;;;;;;26.58;14.18;;;;;;;7.82;64.72;98643.81;5046542;28;20075;-80
2022/04/06 06:50:42;;;;;;;23.77;12.63;;;;;;;7.85;64.65;98640.94;5046807;28;20195;-80
2022/04/06 06:53:09;;;;;;;23.08;12.13;;;;;;;7.89;64.81;98636.22;5046956;28;20508;-79
2022/04/06 06:55:36;;;;;;;23.25;12.52;;;;;;;7.96;64.60;98644.41;5045572;28;20120;-77
2022/04/06 06:58:03;;;;;;;21.75;12.43;;;;;;;7.97;64.46;98646.06;5045937;28;20136;-77
2022/04/06 07:00:30;;;;;;;23.75;12.65;;;;;;;7.94;64.67;98649.81;5045736;28;20076;-80
2022/04/06 07:02:57;;;;;;;20.50;11.90;;;;;;;7.92;64.74;98643.00;5045384;28;20045;-78
2022/04/06 07:05:28;;;;;;;18.60;11.52;;;;;;;7.84;64.92;98641.88;5047727;28;20071;-79
2022/04/06 07:07:56;;;;;;;21.67;12.55;;;;;;;7.91;65.03;98639.56;5050171;28;20055;-81
2022/04/06 07:10:24;;;;;;;18.50;9.88;;;;;;;8.04;64.66;98640.13;5060732;28;20485;-78
2022/04/06 07:12:52;;;;;;;22.05;11.45;;;;;;;8.09;64.50;98637.09;5058166;28;20084;-78
2022/04/06 07:15:19;;;;;;;25.45;15.43;;;;;;;8.01;64.76;98632.53;5046633;28;20136;-77
2022/04/06 07:17:51;;;;;;;22.10;12.18;;;;;;;7.96;64.95;98642.63;5046792;28;20049;-78
2022/04/06 07:20:18;;;;;;;23.08;12.63;;;;;;;7.88;65.11;98634.56;5046645;28;20071;-81
2022/04/06 07:22:46;;;;;;;26.08;14.20;;;;;;;7.89;65.20;98636.22;5050824;28;20132;-80
2022/04/06 07:25:13;;;;;;;22.65;12.20;;;;;;;7.92;65.10;98637.75;5046561;28;20140;-80
2022/04/06 07:27:44;;;;;;;25.02;12.90;;;;;;;7.91;65.58;98641.38;5047892;28;20037;-80
2022/04/06 07:30:13;;;;;;;23.75;12.50;;;;;;;7.90;65.23;98639.69;5053059;28;20132;-82
2022/04/06 07:32:41;;;;;;;22.63;12.77;;;;;;;7.89;65.31;98640.66;5047468;28;20292;-78
2022/04/06 07:35:09;;;;;;;27.25;16.48;;;;;;;7.88;65.40;98642.44;5047110;28;20648;-79
2022/04/06 07:37:37;;;;;;;21.38;11.95;;;;;;;7.92;65.46;98650.91;5048210;28;20053;-78
2022/04/06 07:40:08;;;;;;;20.23;12.40;;;;;;;8.00;65.31;98640.56;5014169;28;20045;-82
2022/04/06 07:42:36;;;;;;;27.48;13.10;;;;;;;8.03;65.25;98645.53;5046355;28;20110;-78
2022/04/06 07:45:04;;;;;;;27.05;14.25;;;;;;;8.12;65.44;98643.88;5047436;28;20053;-77
2022/04/06 07:47:31;;;;;;;24.10;13.15;;;;;;;8.33;64.94;98641.16;5049182;28;20056;-78
2022/04/06 07:50:00;;;;;;;22.42;12.32;;;;;;;8.34;64.77;98640.22;5048343;28;20230;-78
2022/04/06 07:52:28;;;;;;;20.98;12.23;;;;;;;8.38;64.96;98634.50;5047816;28;20045;-76
2022/04/06 07:54:55;;;;;;;19.92;9.32;;;;;;;8.44;64.86;98637.59;5046795;28;20091;-78
2022/04/06 07:57:24;;;;;;;0.90;0.85;;;;;;;8.50;64.73;98630.00;5051017;28;20485;-78
2022/04/06 07:59:52;;;;;;;0.68;0.68;;;;;;;8.49;64.65;98641.47;5051969;28;20468;-80
2022/04/06 08:02:19;;;;;;;0.00;0.00;;;;;;;8.63;64.73;98632.34;5053200;28;20049;-79
2022/04/06 08:04:46;;;;;;;0.20;0.20;;;;;;;8.91;64.27;98630.69;5052663;28;20532;-77
2022/04/06 08:07:13;;;;;;;0.00;0.00;;;;;;;9.03;63.83;98627.88;5052321;28;20132;-79
2022/04/06 08:09:40;;;;;;;0.10;0.10;;;;;;;9.08;64.00;98630.94;5050741;28;20132;-77
2022/04/06 08:12:08;;;;;;;0.00;0.00;;;;;;;9.03;64.16;98630.53;5056357;28;20045;-79
2022/04/06 08:14:37;;;;;;;1.00;0.90;;;;;;;9.13;63.99;98639.25;5063859;28;20292;-77
2022/04/06 08:17:04;;;;;;;0.00;0.00;;;;;;;9.13;64.08;98628.72;5064090;28;20124;-78
2022/04/06 08:19:31;;;;;;;1.65;1.45;;;;;;;9.24;64.21;98627.69;5064363;28;20052;-78
2022/04/06 08:21:59;;;;;;;0.15;0.15;;;;;;;9.43;63.92;98634.72;5069594;28;20065;-81
2022/04/06 08:24:27;;;;;;;0.00;0.00;;;;;;;9.59;63.65;98634.09;5069048;28;20117;-83
2022/04/06 08:26:54;;;;;;;1.77;1.65;;;;;;;9.75;63.44;98634.31;5065943;28;20068;-78
2022/04/06 08:29:21;;;;;;;0.00;0.00;;;;;;;9.86;63.20;98626.19;5066188;28;20100;-77
2022/04/06 08:31:52;;;;;;;0.00;0.00;;;;;;;10.09;63.26;98636.38;5067038;28;20080;-82
2022/04/06 08:34:19;;;;;;;0.00;0.00;;;;;;;10.39;62.76;98632.59;5064061;28;20053;-78
2022/04/06 08:36:53;;;;;;;0.00;0.00;;;;;;;10.59;62.70;98627.16;5066908;28;20127;-77
2022/04/06 08:39:38;;;;;;;0.10;0.10;;;;;;;10.93;62.43;98624.66;5062236;28;20068;-79
2022/04/06 08:42:06;;;;;;;0.00;0.00;;;;;;;11.10;62.11;98623.78;5063540;28;20049;-76
2022/04/06 08:44:33;;;;;;;0.03;0.03;;;;;;;11.28;62.27;98622.91;5059256;28;20091;-79
2022/04/06 08:47:06;;;;;;;0.10;0.10;;;;;;;11.45;62.42;98619.38;5064510;28;20052;-79
2022/04/06 08:49:35;;;;;;;0.00;0.00;;;;;;;11.59;62.89;98631.16;5062510;28;20101;-78
2022/04/06 08:52:04;;;;;;;7.97;1.08;;;;;;;11.64;63.28;98639.44;5063665;28;20048;-77
2022/04/06 08:54:32;;;;;;;0.00;0.00;;;;;;;11.85;63.32;98640.88;5059843;28;20432;-79
2022/04/06 08:56:59;;;;;;;0.10;0.10;;;;;;;12.18;63.12;98641.03;5059007;28;20071;-79
2022/04/06 08:59:26;;;;;;;0.00;0.00;;;;;;;12.73;62.33;98637.81;5060599;28;20128;-77
2022/04/06 09:01:54;;;;;;;0.10;0.10;;;;;;;13.35;61.58;98636.47;5054857;28;20129;-78
2022/04/06 09:04:24;;;;;;;0.30;0.30;;;;;;;13.77;61.10;98627.41;5043071;28;20049;-79
2022/04/06 09:06:54;;;;;;;0.17;0.17;;;;;;;13.94;61.07;98625.53;5053394;28;20129;-77
2022/04/06 09:09:24;;;;;;;0.25;0.25;;;;;;;14.02;61.33;98630.78;5036855;28;20167;-80
2022/04/06 09:11:52;;;;;;;0.00;0.00;;;;;;;14.09;61.64;98630.91;5056651;28;20103;-76
2022/04/06 09:14:30;;;;;;;0.03;0.03;;;;;;;14.21;61.78;98634.84;5057356;28;20076;-79
2022/04/06 09:17:03;;;;;;;0.30;0.30;;;;;;;14.31;61.59;98647.88;5056416;28;20408;-79
2022/04/06 09:19:31;;;;;;;0.00;0.00;;;;;;;14.20;61.92;98641.13;5023255;28;20051;-79
2022/04/06 09:21:59;;;;;;;0.20;0.20;;;;;;;14.09;62.40;98636.22;5057969;28;20067;-79
2022/04/06 09:24:28;;;;;;;0.10;0.10;;;;;;;14.01;62.61;98636.25;5005915;28;20056;-79
2022/04/06 09:26:59;;;;;;;0.10;0.10;;;;;;;14.07;62.61;98641.72;5061310;28;20055;-80
2022/04/06 09:29:28;;;;;;;0.40;0.40;;;;;;;13.88;62.77;98642.13;5061694;28;20509;-81
2022/04/06 09:31:55;;;;;;;0.10;0.10;;;;;;;13.62;63.29;98637.09;5061434;28;20414;-79
2022/04/06 09:34:24;;;;;;;0.00;0.00;;;;;;;13.50;63.62;98632.13;5063748;28;20357;-80
2022/04/06 09:36:56;;;;;;;0.00;0.00;;;;;;;13.42;63.88;98639.28;5063804;28;20218;-79
2022/04/06 09:39:46;;;;;;;0.03;0.03;;;;;;;13.37;63.84;98645.09;5058875;28;20114;-80
2022/04/06 09:42:21;;;;;;;0.10;0.10;;;;;;;13.35;64.15;98655.03;5057935;28;20469;-79
2022/04/06 09:47:44;;;;;;;0.10;0.10;;;;;;;13.51;63.53;98655.00;5058863;28;20067;-77
2022/04/06 09:50:14;;;;;;;0.10;0.10;;;;;;;13.42;63.85;98653.38;5040775;28;20177;-79
2022/04/06 09:52:44;;;;;;;0.00;0.00;;;;;;;13.33;64.12;98662.34;5063764;28;20624;-83
2022/04/06 09:55:13;;;;;;;0.00;0.00;;;;;;;13.19;64.29;98656.69;5060033;28;20056;-81
2022/04/06 09:57:47;;;;;;;0.00;0.00;;;;;;;13.05;64.72;98664.47;5059224;28;20117;-80
2022/04/06 10:00:19;;;;;;;0.00;0.00;;;;;;;12.91;64.68;98658.00;5061243;28;20049;-80
2022/04/06 10:02:48;;;;;;;0.00;0.00;;;;;;;12.73;65.01;98652.88;5062400;28;20084;-80
2022/04/06 10:05:16;;;;;;;0.00;0.00;;;;;;;12.62;65.18;98656.66;5061693;28;20067;-78
2022/04/06 10:07:45;;;;;;;0.00;0.00;;;;;;;12.59;65.18;98651.72;5061634;28;20083;-80
2022/04/06 10:10:13;;;;;;;0.10;0.10;;;;;;;12.69;65.13;98648.91;5062847;28;20072;-81
2022/04/06 10:12:41;;;;;;;0.03;0.03;;;;;;;13.13;64.31;98636.16;5061448;28;20059;-81
2022/04/06 10:15:09;;;;;;;0.00;0.00;;;;;;;13.55;63.53;98635.09;5062695;28;20077;-79
2022/04/06 10:17:36;;;;;;;0.03;0.03;;;;;;;13.98;62.80;98639.28;5064246;28;20068;-80
2022/04/06 10:20:24;;;;;;;0.20;0.20;;;;;;;14.35;62.40;98641.25;5061250;28;20041;-80
2022/04/06 10:23:03;;;;;;;0.45;0.45;;;;;;;14.62;61.98;98647.91;5061320;28;20393;-77
2022/04/06 10:25:44;;;;;;;0.43;0.43;;;;;;;14.88;61.82;98638.75;5061709;28;20068;-81
2022/04/06 10:28:13;;;;;;;0.57;0.57;;;;;;;15.13;61.75;98639.38;5063516;28;20073;-82
2022/04/06 10:30:40;;;;;;;0.00;0.00;;;;;;;15.50;61.46;98629.66;5045307;28;20076;-81
2022/04/06 10:33:21;;;;;;;0.00;0.00;;;;;;;15.60;61.58;98629.41;5064397;28;20056;-80
2022/04/06 10:35:49;;;;;;;0.45;0.45;;;;;;;15.78;61.47;98626.41;5064181;28;20663;-80
2022/04/06 10:38:20;;;;;;;0.10;0.10;;;;;;;15.75;61.89;98622.28;5058750;28;20484;-80
2022/04/06 10:40:59;;;;;;;0.55;0.55;;;;;;;15.65;62.13;98627.84;5043412;28;20099;-81
2022/04/06 10:43:53;;;;;;;0.88;0.55;;;;;;;15.32;62.90;98627.34;5062725;28;20067;-82
2022/04/06 10:46:35;;;;;;;1.20;1.15;;;;;;;15.04;63.51;98643.91;5063944;28;20096;-81
2022/04/06 10:49:15;;;;;;;0.00;0.00;;;;;;;14.87;63.74;98632.59;5066031;28;20096;-79
2022/04/06 10:51:44;;;;;;;12.75;1.75;;;;;;;14.59;64.00;98636.81;5064099;28;20060;-82
2022/04/06 10:54:43;;;;;;;0.98;0.98;;;;;;;14.61;64.07;98640.94;5041194;28;20072;-82
2022/04/06 10:57:11;;;;;;;0.00;0.00;;;;;;;14.54;63.42;98635.47;5013653;28;20069;-81
2022/04/06 10:59:38;;;;;;;0.65;0.65;;;;;;;14.53;63.63;98632.97;5015954;28;20050;-81
2022/04/06 11:02:20;;;;;;;0.80;0.80;;;;;;;14.47;63.89;98650.44;5014547;28;20092;-83
2022/04/06 11:04:48;;;;;;;0.10;0.10;;;;;;;14.38;63.88;98650.69;5005340;28;20060;-78
2022/04/06 11:10:06;;;;;;;0.00;0.00;;;;;;;14.31;63.87;98646.09;5005820;28;20181;-79
2022/04/06 11:10:16;;;;;;;0.35;0.35;;;;;;;14.37;63.82;98646.34;5004957;28;20050;-78
2022/04/06 11:13:00;;;;;;;0.25;0.25;;;;;;;14.51;63.50;98633.19;5004251;28;20041;-76
2022/04/06 11:15:38;;;;;;;0.35;0.35;;;;;;;14.61;63.29;98645.44;5004921;28;20092;-77
2022/04/06 11:18:07;;;;;;;0.10;0.10;;;;;;;14.88;62.81;98644.06;4972115;28;20050;-77
2022/04/06 11:20:35;;;;;;;0.28;0.28;;;;;;;15.14;62.27;98643.66;5003739;28;20076;-78
2022/04/06 11:23:02;;;;;;;0.00;0.00;;;;;;;15.28;61.88;98645.53;5005306;28;20089;-78
2022/04/06 11:25:32;;;;;;;0.03;0.03;;;;;;;15.36;61.78;98655.28;5005317;28;20101;-77
2022/04/06 11:28:07;;;;;;;0.15;0.15;;;;;;;15.44;61.67;98652.50;5004781;28;20549;-78
2022/04/06 11:30:36;;;;;;;;;;;;;;;15.85;60.67;98651.28;5012882;28;20055;-79
2022/04/06 11:33:05;;;;;;;0.00;0.00;;;;;;;15.94;60.53;98662.69;5045223;28;19924;-79
2022/04/06 11:35:34;;;;;;;0.00;0.00;;;;;;;15.91;60.51;98657.72;5047076;28;20135;-78
2022/04/06 11:38:03;;;;;;;0.00;0.00;;;;;;;15.89;60.59;98655.22;5046406;28;20044;-79
2022/04/06 11:40:32;;;;;;;0.00;0.00;;;;;;;15.96;60.70;98660.66;5045723;28;20055;-78
2022/04/06 11:43:05;;;;;;;0.00;0.00;;;;;;;15.98;60.29;98671.94;5045268;28;20067;-76